Terminal Aerodrome Forecast
Issued by NWS Louisville, KY

Home | Current Version | Previous Version | Text Only | Print | Product List | Glossary On
Versions: 1 2 3 4 5 6 7 8 9 10 11 12
000
FTUS43 KLMK 281728
TAFBWG
TAF
KBWG 281728Z 2818/2918 18007KT P6SM FEW250
     FM290700 18005KT P6SM SKC WS020/21035KT
     FM291300 20012G20KT P6SM FEW040 SCT140=

USA.gov is the U.S. government's official web portal to all federal, state and local government web resources and services.